sensor_id;sensor_type;location;lat;lon;timestamp;P1;durP1;ratioP1;P2;durP2;ratioP2
12681;SDS011;6405;59.208;18.216;2024-03-02T00:02:14;64.00;;;25.07;;
12681;SDS011;6405;59.208;18.216;2024-03-02T00:04:39;62.30;;;22.83;;
12681;SDS011;6405;59.208;18.216;2024-03-02T00:07:06;75.73;;;23.30;;
12681;SDS011;6405;59.208;18.216;2024-03-02T00:09:32;92.10;;;26.70;;
12681;SDS011;6405;59.208;18.216;2024-03-02T00:12:01;54.90;;;21.73;;
12681;SDS011;6405;59.208;18.216;2024-03-02T00:14:30;49.37;;;22.47;;
12681;SDS011;6405;59.208;18.216;2024-03-02T00:16:56;69.67;;;24.53;;
12681;SDS011;6405;59.208;18.216;2024-03-02T00:19:22;73.27;;;24.23;;
12681;SDS011;6405;59.208;18.216;2024-03-02T00:21:48;58.87;;;24.73;;
12681;SDS011;6405;59.208;18.216;2024-03-02T00:24:26;64.73;;;23.43;;
12681;SDS011;6405;59.208;18.216;2024-03-02T00:27:00;51.90;;;21.67;;
12681;SDS011;6405;59.208;18.216;2024-03-02T00:29:28;45.03;;;21.87;;
12681;SDS011;6405;59.208;18.216;2024-03-02T00:31:54;53.00;;;23.03;;
12681;SDS011;6405;59.208;18.216;2024-03-02T00:34:20;56.07;;;21.47;;
12681;SDS011;6405;59.208;18.216;2024-03-02T00:36:47;117.00;;;27.13;;
12681;SDS011;6405;59.208;18.216;2024-03-02T00:39:14;57.10;;;22.83;;
12681;SDS011;6405;59.208;18.216;2024-03-02T00:41:42;76.67;;;23.70;;
12681;SDS011;6405;59.208;18.216;2024-03-02T00:44:09;48.43;;;21.53;;
12681;SDS011;6405;59.208;18.216;2024-03-02T00:46:38;47.67;;;21.13;;
12681;SDS011;6405;59.208;18.216;2024-03-02T00:49:11;65.13;;;23.13;;
12681;SDS011;6405;59.208;18.216;2024-03-02T00:51:41;72.50;;;22.50;;
12681;SDS011;6405;59.208;18.216;2024-03-02T00:54:10;56.93;;;21.93;;
12681;SDS011;6405;59.208;18.216;2024-03-02T00:56:36;46.70;;;21.37;;
12681;SDS011;6405;59.208;18.216;2024-03-02T00:59:02;74.07;;;21.63;;
12681;SDS011;6405;59.208;18.216;2024-03-02T01:01:28;51.33;;;20.40;;
12681;SDS011;6405;59.208;18.216;2024-03-02T01:03:53;50.13;;;19.60;;
12681;SDS011;6405;59.208;18.216;2024-03-02T01:06:19;74.93;;;22.67;;
12681;SDS011;6405;59.208;18.216;2024-03-02T01:08:45;48.10;;;21.57;;
12681;SDS011;6405;59.208;18.216;2024-03-02T01:11:12;49.13;;;21.70;;
12681;SDS011;6405;59.208;18.216;2024-03-02T01:13:38;51.83;;;21.27;;
12681;SDS011;6405;59.208;18.216;2024-03-02T01:16:03;80.77;;;25.67;;
12681;SDS011;6405;59.208;18.216;2024-03-02T01:18:29;55.40;;;22.63;;
12681;SDS011;6405;59.208;18.216;2024-03-02T01:20:56;62.20;;;24.57;;
12681;SDS011;6405;59.208;18.216;2024-03-02T01:23:22;58.93;;;24.23;;
12681;SDS011;6405;59.208;18.216;2024-03-02T01:25:48;239.00;;;37.90;;
12681;SDS011;6405;59.208;18.216;2024-03-02T01:28:15;64.80;;;27.07;;
12681;SDS011;6405;59.208;18.216;2024-03-02T01:30:41;86.30;;;26.57;;
12681;SDS011;6405;59.208;18.216;2024-03-02T01:33:06;55.00;;;25.40;;
12681;SDS011;6405;59.208;18.216;2024-03-02T01:35:32;58.47;;;26.03;;
12681;SDS011;6405;59.208;18.216;2024-03-02T01:38:00;68.03;;;25.33;;
12681;SDS011;6405;59.208;18.216;2024-03-02T01:40:26;64.90;;;26.03;;
12681;SDS011;6405;59.208;18.216;2024-03-02T01:42:53;54.80;;;23.67;;
12681;SDS011;6405;59.208;18.216;2024-03-02T01:45:20;55.03;;;24.50;;
12681;SDS011;6405;59.208;18.216;2024-03-02T01:47:47;63.80;;;26.57;;
12681;SDS011;6405;59.208;18.216;2024-03-02T01:50:12;61.53;;;27.37;;
12681;SDS011;6405;59.208;18.216;2024-03-02T01:52:38;106.73;;;31.10;;
12681;SDS011;6405;59.208;18.216;2024-03-02T01:55:04;56.93;;;24.47;;
12681;SDS011;6405;59.208;18.216;2024-03-02T01:57:31;77.93;;;28.47;;
12681;SDS011;6405;59.208;18.216;2024-03-02T01:59:57;76.30;;;28.17;;
12681;SDS011;6405;59.208;18.216;2024-03-02T02:02:23;70.63;;;26.67;;
12681;SDS011;6405;59.208;18.216;2024-03-02T02:04:49;77.80;;;28.53;;
12681;SDS011;6405;59.208;18.216;2024-03-02T02:07:15;81.63;;;29.83;;
12681;SDS011;6405;59.208;18.216;2024-03-02T02:09:43;92.97;;;30.30;;
12681;SDS011;6405;59.208;18.216;2024-03-02T02:12:09;65.50;;;26.13;;
12681;SDS011;6405;59.208;18.216;2024-03-02T02:14:35;71.03;;;28.70;;
12681;SDS011;6405;59.208;18.216;2024-03-02T02:17:01;126.83;;;33.67;;
12681;SDS011;6405;59.208;18.216;2024-03-02T02:19:27;85.40;;;28.53;;
12681;SDS011;6405;59.208;18.216;2024-03-02T02:21:54;80.90;;;26.77;;
12681;SDS011;6405;59.208;18.216;2024-03-02T02:24:20;75.97;;;27.50;;
12681;SDS011;6405;59.208;18.216;2024-03-02T02:26:45;114.50;;;31.37;;
12681;SDS011;6405;59.208;18.216;2024-03-02T02:29:11;70.30;;;27.93;;
12681;SDS011;6405;59.208;18.216;2024-03-02T02:31:37;71.53;;;27.67;;
12681;SDS011;6405;59.208;18.216;2024-03-02T02:34:04;65.43;;;26.47;;
12681;SDS011;6405;59.208;18.216;2024-03-02T02:36:30;87.10;;;29.37;;
12681;SDS011;6405;59.208;18.216;2024-03-02T02:38:56;58.83;;;25.90;;
12681;SDS011;6405;59.208;18.216;2024-03-02T02:41:24;86.97;;;29.00;;
12681;SDS011;6405;59.208;18.216;2024-03-02T02:43:49;65.33;;;27.00;;
12681;SDS011;6405;59.208;18.216;2024-03-02T02:46:15;78.63;;;29.27;;
12681;SDS011;6405;59.208;18.216;2024-03-02T02:48:41;97.43;;;31.73;;
12681;SDS011;6405;59.208;18.216;2024-03-02T02:51:06;110.73;;;31.93;;
12681;SDS011;6405;59.208;18.216;2024-03-02T02:53:32;83.87;;;29.83;;
12681;SDS011;6405;59.208;18.216;2024-03-02T02:56:00;113.90;;;32.03;;
12681;SDS011;6405;59.208;18.216;2024-03-02T02:58:26;72.00;;;27.67;;
12681;SDS011;6405;59.208;18.216;2024-03-02T03:00:51;64.60;;;27.77;;
12681;SDS011;6405;59.208;18.216;2024-03-02T03:03:19;81.73;;;28.83;;
12681;SDS011;6405;59.208;18.216;2024-03-02T03:05:45;115.33;;;32.93;;
12681;SDS011;6405;59.208;18.216;2024-03-02T03:08:11;71.87;;;27.87;;
12681;SDS011;6405;59.208;18.216;2024-03-02T03:10:36;84.60;;;29.20;;
12681;SDS011;6405;59.208;18.216;2024-03-02T03:13:02;62.93;;;28.53;;
12681;SDS011;6405;59.208;18.216;2024-03-02T03:15:28;97.47;;;30.00;;
12681;SDS011;6405;59.208;18.216;2024-03-02T03:17:54;79.83;;;29.23;;
12681;SDS011;6405;59.208;18.216;2024-03-02T03:20:19;142.13;;;35.40;;
12681;SDS011;6405;59.208;18.216;2024-03-02T03:22:46;100.17;;;29.60;;
12681;SDS011;6405;59.208;18.216;2024-03-02T03:25:12;86.53;;;28.60;;
12681;SDS011;6405;59.208;18.216;2024-03-02T03:27:37;64.70;;;25.73;;
12681;SDS011;6405;59.208;18.216;2024-03-02T03:30:03;77.57;;;26.60;;
12681;SDS011;6405;59.208;18.216;2024-03-02T03:32:31;75.57;;;28.47;;
12681;SDS011;6405;59.208;18.216;2024-03-02T03:34:56;128.97;;;30.87;;
12681;SDS011;6405;59.208;18.216;2024-03-02T03:37:22;87.77;;;28.63;;
12681;SDS011;6405;59.208;18.216;2024-03-02T03:39:49;75.37;;;27.80;;
12681;SDS011;6405;59.208;18.216;2024-03-02T03:42:14;67.17;;;24.67;;
12681;SDS011;6405;59.208;18.216;2024-03-02T03:44:41;72.70;;;28.80;;
12681;SDS011;6405;59.208;18.216;2024-03-02T03:47:06;68.57;;;25.07;;
12681;SDS011;6405;59.208;18.216;2024-03-02T03:49:32;69.30;;;25.80;;
12681;SDS011;6405;59.208;18.216;2024-03-02T03:51:58;83.17;;;26.40;;
12681;SDS011;6405;59.208;18.216;2024-03-02T03:54:23;67.33;;;24.90;;
12681;SDS011;6405;59.208;18.216;2024-03-02T03:56:49;78.17;;;26.17;;
12681;SDS011;6405;59.208;18.216;2024-03-02T03:59:15;97.17;;;31.00;;
12681;SDS011;6405;59.208;18.216;2024-03-02T04:01:41;65.87;;;23.83;;
12681;SDS011;6405;59.208;18.216;2024-03-02T04:04:06;59.43;;;24.40;;
12681;SDS011;6405;59.208;18.216;2024-03-02T04:06:32;60.00;;;25.83;;
12681;SDS011;6405;59.208;18.216;2024-03-02T04:08:58;82.93;;;27.70;;
12681;SDS011;6405;59.208;18.216;2024-03-02T04:11:23;76.30;;;28.97;;
12681;SDS011;6405;59.208;18.216;2024-03-02T04:13:49;66.07;;;27.20;;
12681;SDS011;6405;59.208;18.216;2024-03-02T04:16:15;184.43;;;37.33;;
12681;SDS011;6405;59.208;18.216;2024-03-02T04:18:40;127.03;;;29.77;;
12681;SDS011;6405;59.208;18.216;2024-03-02T04:21:06;159.93;;;32.17;;
12681;SDS011;6405;59.208;18.216;2024-03-02T04:23:32;74.50;;;25.93;;
12681;SDS011;6405;59.208;18.216;2024-03-02T04:25:58;92.60;;;29.90;;
12681;SDS011;6405;59.208;18.216;2024-03-02T04:28:23;71.53;;;28.17;;
12681;SDS011;6405;59.208;18.216;2024-03-02T04:30:49;94.50;;;26.83;;
12681;SDS011;6405;59.208;18.216;2024-03-02T04:33:14;74.93;;;28.53;;
12681;SDS011;6405;59.208;18.216;2024-03-02T04:35:40;125.83;;;30.07;;
12681;SDS011;6405;59.208;18.216;2024-03-02T04:38:06;93.93;;;30.13;;
12681;SDS011;6405;59.208;18.216;2024-03-02T04:40:32;75.60;;;28.77;;
12681;SDS011;6405;59.208;18.216;2024-03-02T04:42:57;102.53;;;29.90;;
12681;SDS011;6405;59.208;18.216;2024-03-02T04:45:24;85.03;;;30.80;;
12681;SDS011;6405;59.208;18.216;2024-03-02T04:47:50;74.67;;;28.47;;
12681;SDS011;6405;59.208;18.216;2024-03-02T04:50:15;138.43;;;33.40;;
12681;SDS011;6405;59.208;18.216;2024-03-02T04:52:41;85.93;;;30.20;;
12681;SDS011;6405;59.208;18.216;2024-03-02T04:55:07;116.03;;;33.20;;
12681;SDS011;6405;59.208;18.216;2024-03-02T04:57:42;72.83;;;28.57;;
12681;SDS011;6405;59.208;18.216;2024-03-02T05:00:09;81.37;;;30.67;;
12681;SDS011;6405;59.208;18.216;2024-03-02T05:02:35;80.43;;;31.57;;
12681;SDS011;6405;59.208;18.216;2024-03-02T05:05:01;122.53;;;34.43;;
12681;SDS011;6405;59.208;18.216;2024-03-02T05:07:27;95.53;;;32.83;;
12681;SDS011;6405;59.208;18.216;2024-03-02T05:09:53;81.90;;;28.47;;
12681;SDS011;6405;59.208;18.216;2024-03-02T05:12:19;93.50;;;30.53;;
12681;SDS011;6405;59.208;18.216;2024-03-02T05:15:03;103.70;;;32.90;;
12681;SDS011;6405;59.208;18.216;2024-03-02T05:17:29;130.60;;;34.03;;
12681;SDS011;6405;59.208;18.216;2024-03-02T05:19:55;97.37;;;30.43;;
12681;SDS011;6405;59.208;18.216;2024-03-02T05:22:20;90.17;;;31.97;;
12681;SDS011;6405;59.208;18.216;2024-03-02T05:24:46;86.77;;;31.03;;
12681;SDS011;6405;59.208;18.216;2024-03-02T05:27:12;88.00;;;30.87;;
12681;SDS011;6405;59.208;18.216;2024-03-02T05:29:38;83.90;;;29.93;;
12681;SDS011;6405;59.208;18.216;2024-03-02T05:32:03;76.23;;;28.70;;
12681;SDS011;6405;59.208;18.216;2024-03-02T05:34:29;81.97;;;29.03;;
12681;SDS011;6405;59.208;18.216;2024-03-02T05:36:56;82.97;;;31.40;;
12681;SDS011;6405;59.208;18.216;2024-03-02T05:39:22;93.90;;;31.33;;
12681;SDS011;6405;59.208;18.216;2024-03-02T05:41:48;96.27;;;30.43;;
12681;SDS011;6405;59.208;18.216;2024-03-02T05:44:14;93.43;;;31.27;;
12681;SDS011;6405;59.208;18.216;2024-03-02T05:46:40;105.20;;;32.03;;
12681;SDS011;6405;59.208;18.216;2024-03-02T05:49:07;84.90;;;29.33;;
12681;SDS011;6405;59.208;18.216;2024-03-02T05:51:34;128.90;;;34.30;;
12681;SDS011;6405;59.208;18.216;2024-03-02T05:54:00;97.17;;;31.23;;
12681;SDS011;6405;59.208;18.216;2024-03-02T05:56:26;108.47;;;31.63;;
12681;SDS011;6405;59.208;18.216;2024-03-02T05:58:52;135.77;;;32.73;;
12681;SDS011;6405;59.208;18.216;2024-03-02T06:01:46;85.37;;;30.77;;
12681;SDS011;6405;59.208;18.216;2024-03-02T06:04:15;91.10;;;30.10;;
12681;SDS011;6405;59.208;18.216;2024-03-02T06:06:41;130.90;;;32.80;;
12681;SDS011;6405;59.208;18.216;2024-03-02T06:09:07;88.97;;;28.30;;
12681;SDS011;6405;59.208;18.216;2024-03-02T06:11:36;83.77;;;29.43;;
12681;SDS011;6405;59.208;18.216;2024-03-02T06:14:03;78.43;;;28.57;;
12681;SDS011;6405;59.208;18.216;2024-03-02T06:16:30;74.73;;;28.43;;
12681;SDS011;6405;59.208;18.216;2024-03-02T06:18:56;109.83;;;32.07;;
12681;SDS011;6405;59.208;18.216;2024-03-02T06:21:26;100.33;;;32.07;;
12681;SDS011;6405;59.208;18.216;2024-03-02T06:23:52;76.70;;;27.80;;
12681;SDS011;6405;59.208;18.216;2024-03-02T06:26:18;88.20;;;31.37;;
12681;SDS011;6405;59.208;18.216;2024-03-02T06:28:44;82.07;;;28.67;;
12681;SDS011;6405;59.208;18.216;2024-03-02T06:31:10;101.60;;;31.27;;
12681;SDS011;6405;59.208;18.216;2024-03-02T06:33:36;119.27;;;32.77;;
12681;SDS011;6405;59.208;18.216;2024-03-02T06:36:03;103.10;;;31.33;;
12681;SDS011;6405;59.208;18.216;2024-03-02T06:38:29;78.93;;;28.83;;
12681;SDS011;6405;59.208;18.216;2024-03-02T06:40:57;103.87;;;30.80;;
12681;SDS011;6405;59.208;18.216;2024-03-02T06:43:23;84.00;;;29.83;;
12681;SDS011;6405;59.208;18.216;2024-03-02T06:45:49;78.40;;;29.00;;
12681;SDS011;6405;59.208;18.216;2024-03-02T06:48:15;76.43;;;28.03;;
12681;SDS011;6405;59.208;18.216;2024-03-02T06:50:47;71.20;;;28.33;;
12681;SDS011;6405;59.208;18.216;2024-03-02T06:53:13;89.33;;;28.23;;
12681;SDS011;6405;59.208;18.216;2024-03-02T06:55:39;74.60;;;28.37;;
12681;SDS011;6405;59.208;18.216;2024-03-02T06:58:05;79.97;;;29.27;;
12681;SDS011;6405;59.208;18.216;2024-03-02T07:00:31;88.33;;;29.80;;
12681;SDS011;6405;59.208;18.216;2024-03-02T07:02:56;73.73;;;28.73;;
12681;SDS011;6405;59.208;18.216;2024-03-02T07:05:23;71.60;;;27.57;;
12681;SDS011;6405;59.208;18.216;2024-03-02T07:07:49;82.80;;;29.53;;
12681;SDS011;6405;59.208;18.216;2024-03-02T07:10:14;71.00;;;28.90;;
12681;SDS011;6405;59.208;18.216;2024-03-02T07:12:40;79.60;;;30.20;;
12681;SDS011;6405;59.208;18.216;2024-03-02T07:15:06;72.90;;;28.13;;
12681;SDS011;6405;59.208;18.216;2024-03-02T07:17:32;87.17;;;30.17;;
12681;SDS011;6405;59.208;18.216;2024-03-02T07:19:58;74.70;;;28.20;;
12681;SDS011;6405;59.208;18.216;2024-03-02T07:22:24;82.27;;;27.67;;
12681;SDS011;6405;59.208;18.216;2024-03-02T07:24:50;68.60;;;28.80;;
12681;SDS011;6405;59.208;18.216;2024-03-02T07:27:16;87.93;;;29.80;;
12681;SDS011;6405;59.208;18.216;2024-03-02T07:29:42;71.77;;;28.03;;
12681;SDS011;6405;59.208;18.216;2024-03-02T07:32:09;65.20;;;27.30;;
12681;SDS011;6405;59.208;18.216;2024-03-02T07:34:35;72.27;;;28.33;;
12681;SDS011;6405;59.208;18.216;2024-03-02T07:37:02;70.13;;;27.10;;
12681;SDS011;6405;59.208;18.216;2024-03-02T07:39:28;61.43;;;26.93;;
12681;SDS011;6405;59.208;18.216;2024-03-02T07:41:55;67.40;;;27.97;;
12681;SDS011;6405;59.208;18.216;2024-03-02T07:44:20;61.67;;;25.53;;
12681;SDS011;6405;59.208;18.216;2024-03-02T07:46:46;60.13;;;25.93;;
12681;SDS011;6405;59.208;18.216;2024-03-02T07:49:14;70.13;;;29.30;;
12681;SDS011;6405;59.208;18.216;2024-03-02T07:51:41;56.70;;;22.60;;
12681;SDS011;6405;59.208;18.216;2024-03-02T07:54:07;39.10;;;18.30;;
12681;SDS011;6405;59.208;18.216;2024-03-02T07:56:32;58.57;;;26.87;;
12681;SDS011;6405;59.208;18.216;2024-03-02T07:58:58;54.23;;;23.40;;
12681;SDS011;6405;59.208;18.216;2024-03-02T08:01:29;61.10;;;25.50;;
12681;SDS011;6405;59.208;18.216;2024-03-02T08:03:59;47.83;;;22.13;;
12681;SDS011;6405;59.208;18.216;2024-03-02T08:06:26;58.80;;;24.77;;
12681;SDS011;6405;59.208;18.216;2024-03-02T08:08:58;48.60;;;23.13;;
12681;SDS011;6405;59.208;18.216;2024-03-02T08:11:25;48.13;;;23.53;;
12681;SDS011;6405;59.208;18.216;2024-03-02T08:13:52;47.27;;;20.73;;
12681;SDS011;6405;59.208;18.216;2024-03-02T08:16:20;45.90;;;22.70;;
12681;SDS011;6405;59.208;18.216;2024-03-02T08:18:47;45.60;;;21.87;;
12681;SDS011;6405;59.208;18.216;2024-03-02T08:21:14;43.13;;;21.60;;
12681;SDS011;6405;59.208;18.216;2024-03-02T08:23:40;47.77;;;21.87;;
12681;SDS011;6405;59.208;18.216;2024-03-02T08:26:07;47.47;;;21.37;;
12681;SDS011;6405;59.208;18.216;2024-03-02T08:28:34;46.20;;;21.50;;
12681;SDS011;6405;59.208;18.216;2024-03-02T08:31:00;39.70;;;19.97;;
12681;SDS011;6405;59.208;18.216;2024-03-02T08:33:25;45.23;;;21.50;;
12681;SDS011;6405;59.208;18.216;2024-03-02T08:35:51;37.47;;;17.57;;
12681;SDS011;6405;59.208;18.216;2024-03-02T08:38:17;39.67;;;19.97;;
12681;SDS011;6405;59.208;18.216;2024-03-02T08:40:44;39.70;;;20.03;;
12681;SDS011;6405;59.208;18.216;2024-03-02T08:43:09;42.30;;;19.77;;
12681;SDS011;6405;59.208;18.216;2024-03-02T08:45:36;36.40;;;18.53;;
12681;SDS011;6405;59.208;18.216;2024-03-02T08:48:02;36.30;;;19.27;;
12681;SDS011;6405;59.208;18.216;2024-03-02T08:50:28;40.20;;;19.87;;
12681;SDS011;6405;59.208;18.216;2024-03-02T08:52:54;36.27;;;18.90;;
12681;SDS011;6405;59.208;18.216;2024-03-02T08:55:20;37.03;;;18.90;;
12681;SDS011;6405;59.208;18.216;2024-03-02T08:57:45;44.03;;;20.03;;
12681;SDS011;6405;59.208;18.216;2024-03-02T09:00:11;36.83;;;19.57;;
12681;SDS011;6405;59.208;18.216;2024-03-02T09:02:37;41.27;;;19.70;;
12681;SDS011;6405;59.208;18.216;2024-03-02T09:05:03;38.43;;;19.17;;
12681;SDS011;6405;59.208;18.216;2024-03-02T09:07:30;36.27;;;19.17;;
12681;SDS011;6405;59.208;18.216;2024-03-02T09:09:56;33.57;;;17.97;;
12681;SDS011;6405;59.208;18.216;2024-03-02T09:12:21;36.87;;;18.30;;
12681;SDS011;6405;59.208;18.216;2024-03-02T09:14:47;38.63;;;19.33;;
12681;SDS011;6405;59.208;18.216;2024-03-02T09:17:13;33.40;;;18.33;;
12681;SDS011;6405;59.208;18.216;2024-03-02T09:19:39;34.33;;;18.53;;
12681;SDS011;6405;59.208;18.216;2024-03-02T09:22:05;32.60;;;18.87;;
12681;SDS011;6405;59.208;18.216;2024-03-02T09:24:31;34.20;;;17.87;;
12681;SDS011;6405;59.208;18.216;2024-03-02T09:26:58;34.73;;;18.60;;
12681;SDS011;6405;59.208;18.216;2024-03-02T09:29:24;34.27;;;18.27;;
12681;SDS011;6405;59.208;18.216;2024-03-02T09:31:50;27.50;;;14.90;;
12681;SDS011;6405;59.208;18.216;2024-03-02T09:34:16;34.03;;;17.47;;
12681;SDS011;6405;59.208;18.216;2024-03-02T09:36:42;31.07;;;18.03;;
12681;SDS011;6405;59.208;18.216;2024-03-02T09:39:08;31.93;;;16.33;;
12681;SDS011;6405;59.208;18.216;2024-03-02T09:41:37;27.37;;;15.27;;
12681;SDS011;6405;59.208;18.216;2024-03-02T09:44:03;31.73;;;16.60;;
12681;SDS011;6405;59.208;18.216;2024-03-02T09:46:30;32.10;;;15.50;;
12681;SDS011;6405;59.208;18.216;2024-03-02T09:48:56;26.73;;;15.20;;
12681;SDS011;6405;59.208;18.216;2024-03-02T09:51:22;23.50;;;14.90;;
12681;SDS011;6405;59.208;18.216;2024-03-02T09:53:48;22.73;;;14.70;;
12681;SDS011;6405;59.208;18.216;2024-03-02T09:56:14;26.80;;;14.00;;
12681;SDS011;6405;59.208;18.216;2024-03-02T09:58:44;28.53;;;13.93;;
12681;SDS011;6405;59.208;18.216;2024-03-02T10:01:09;22.57;;;13.47;;
12681;SDS011;6405;59.208;18.216;2024-03-02T10:03:36;22.90;;;14.70;;
12681;SDS011;6405;59.208;18.216;2024-03-02T10:06:21;23.00;;;13.77;;
12681;SDS011;6405;59.208;18.216;2024-03-02T10:08:48;24.77;;;13.73;;
12681;SDS011;6405;59.208;18.216;2024-03-02T10:11:30;22.30;;;13.57;;
12681;SDS011;6405;59.208;18.216;2024-03-02T10:14:04;23.63;;;13.97;;
12681;SDS011;6405;59.208;18.216;2024-03-02T10:16:34;21.77;;;13.17;;
12681;SDS011;6405;59.208;18.216;2024-03-02T10:19:20;25.70;;;16.30;;
12681;SDS011;6405;59.208;18.216;2024-03-02T10:21:48;21.03;;;13.47;;
12681;SDS011;6405;59.208;18.216;2024-03-02T10:24:18;23.57;;;13.40;;
12681;SDS011;6405;59.208;18.216;2024-03-02T10:26:45;21.50;;;11.87;;
12681;SDS011;6405;59.208;18.216;2024-03-02T10:29:11;23.03;;;13.13;;
12681;SDS011;6405;59.208;18.216;2024-03-02T10:31:38;21.50;;;12.73;;
12681;SDS011;6405;59.208;18.216;2024-03-02T10:34:05;19.00;;;12.63;;
12681;SDS011;6405;59.208;18.216;2024-03-02T10:36:34;20.87;;;13.17;;
12681;SDS011;6405;59.208;18.216;2024-03-02T10:39:04;19.30;;;12.00;;
12681;SDS011;6405;59.208;18.216;2024-03-02T10:41:32;19.93;;;12.40;;
12681;SDS011;6405;59.208;18.216;2024-03-02T10:44:08;20.83;;;12.40;;
12681;SDS011;6405;59.208;18.216;2024-03-02T10:46:35;19.83;;;11.57;;
12681;SDS011;6405;59.208;18.216;2024-03-02T10:49:03;19.93;;;11.93;;
12681;SDS011;6405;59.208;18.216;2024-03-02T10:51:31;18.87;;;13.07;;
12681;SDS011;6405;59.208;18.216;2024-03-02T10:53:58;21.93;;;13.17;;
12681;SDS011;6405;59.208;18.216;2024-03-02T10:56:27;21.27;;;12.50;;
12681;SDS011;6405;59.208;18.216;2024-03-02T10:59:06;23.33;;;12.23;;
12681;SDS011;6405;59.208;18.216;2024-03-02T11:01:37;21.40;;;12.90;;
12681;SDS011;6405;59.208;18.216;2024-03-02T11:04:04;21.37;;;12.13;;
12681;SDS011;6405;59.208;18.216;2024-03-02T11:06:34;19.13;;;11.37;;
12681;SDS011;6405;59.208;18.216;2024-03-02T11:09:05;20.03;;;12.00;;
12681;SDS011;6405;59.208;18.216;2024-03-02T11:11:36;14.57;;;10.17;;
12681;SDS011;6405;59.208;18.216;2024-03-02T11:14:07;16.33;;;10.83;;
12681;SDS011;6405;59.208;18.216;2024-03-02T11:16:37;17.50;;;10.40;;
12681;SDS011;6405;59.208;18.216;2024-03-02T11:19:04;18.53;;;10.50;;
12681;SDS011;6405;59.208;18.216;2024-03-02T11:21:32;20.37;;;11.27;;
12681;SDS011;6405;59.208;18.216;2024-03-02T11:23:59;15.53;;;10.30;;
12681;SDS011;6405;59.208;18.216;2024-03-02T11:26:25;17.07;;;10.10;;
12681;SDS011;6405;59.208;18.216;2024-03-02T11:28:52;14.73;;;9.97;;
12681;SDS011;6405;59.208;18.216;2024-03-02T11:31:18;15.90;;;10.07;;
12681;SDS011;6405;59.208;18.216;2024-03-02T11:33:44;17.83;;;10.67;;
12681;SDS011;6405;59.208;18.216;2024-03-02T11:36:09;16.53;;;10.10;;
12681;SDS011;6405;59.208;18.216;2024-03-02T11:38:35;18.20;;;10.43;;
12681;SDS011;6405;59.208;18.216;2024-03-02T11:41:02;16.80;;;10.47;;
12681;SDS011;6405;59.208;18.216;2024-03-02T11:43:32;17.97;;;10.23;;
12681;SDS011;6405;59.208;18.216;2024-03-02T11:46:03;14.83;;;10.57;;
12681;SDS011;6405;59.208;18.216;2024-03-02T11:48:32;14.33;;;9.50;;
12681;SDS011;6405;59.208;18.216;2024-03-02T11:51:00;19.60;;;10.37;;
12681;SDS011;6405;59.208;18.216;2024-03-02T11:53:26;16.30;;;10.23;;
12681;SDS011;6405;59.208;18.216;2024-03-02T11:55:54;14.80;;;10.07;;
12681;SDS011;6405;59.208;18.216;2024-03-02T11:58:21;16.20;;;9.97;;
12681;SDS011;6405;59.208;18.216;2024-03-02T12:00:55;15.80;;;10.57;;
12681;SDS011;6405;59.208;18.216;2024-03-02T12:03:24;17.57;;;10.90;;
12681;SDS011;6405;59.208;18.216;2024-03-02T12:05:54;17.37;;;10.23;;
12681;SDS011;6405;59.208;18.216;2024-03-02T12:08:20;16.17;;;9.90;;
12681;SDS011;6405;59.208;18.216;2024-03-02T12:11:00;13.87;;;9.73;;
12681;SDS011;6405;59.208;18.216;2024-03-02T12:13:27;10.93;;;7.93;;
12681;SDS011;6405;59.208;18.216;2024-03-02T12:15:54;13.20;;;9.53;;
12681;SDS011;6405;59.208;18.216;2024-03-02T12:18:21;18.47;;;10.37;;
12681;SDS011;6405;59.208;18.216;2024-03-02T12:20:48;11.90;;;9.57;;
12681;SDS011;6405;59.208;18.216;2024-03-02T12:23:17;18.57;;;9.80;;
12681;SDS011;6405;59.208;18.216;2024-03-02T12:25:44;18.03;;;10.27;;
12681;SDS011;6405;59.208;18.216;2024-03-02T12:28:11;15.00;;;9.63;;
12681;SDS011;6405;59.208;18.216;2024-03-02T12:30:37;16.07;;;9.93;;
12681;SDS011;6405;59.208;18.216;2024-03-02T12:33:03;19.30;;;9.97;;
12681;SDS011;6405;59.208;18.216;2024-03-02T12:35:29;20.13;;;10.73;;
12681;SDS011;6405;59.208;18.216;2024-03-02T12:37:55;17.93;;;10.47;;
12681;SDS011;6405;59.208;18.216;2024-03-02T12:40:21;15.93;;;9.57;;
12681;SDS011;6405;59.208;18.216;2024-03-02T12:42:47;14.67;;;9.97;;
12681;SDS011;6405;59.208;18.216;2024-03-02T12:45:14;17.00;;;9.70;;
12681;SDS011;6405;59.208;18.216;2024-03-02T12:47:40;16.47;;;9.70;;
12681;SDS011;6405;59.208;18.216;2024-03-02T12:50:06;15.67;;;9.57;;
12681;SDS011;6405;59.208;18.216;2024-03-02T12:52:33;17.23;;;10.77;;
12681;SDS011;6405;59.208;18.216;2024-03-02T12:55:03;12.47;;;9.23;;
12681;SDS011;6405;59.208;18.216;2024-03-02T12:57:33;14.70;;;10.07;;
12681;SDS011;6405;59.208;18.216;2024-03-02T12:59:59;15.13;;;9.67;;
12681;SDS011;6405;59.208;18.216;2024-03-02T13:02:34;14.70;;;10.17;;
12681;SDS011;6405;59.208;18.216;2024-03-02T13:05:01;16.50;;;10.40;;
12681;SDS011;6405;59.208;18.216;2024-03-02T13:07:27;16.07;;;10.37;;
12681;SDS011;6405;59.208;18.216;2024-03-02T13:09:54;15.73;;;10.30;;
12681;SDS011;6405;59.208;18.216;2024-03-02T13:12:20;15.23;;;9.60;;
12681;SDS011;6405;59.208;18.216;2024-03-02T13:14:51;17.33;;;10.23;;
12681;SDS011;6405;59.208;18.216;2024-03-02T13:17:20;14.23;;;9.67;;
12681;SDS011;6405;59.208;18.216;2024-03-02T13:19:53;15.20;;;9.30;;
12681;SDS011;6405;59.208;18.216;2024-03-02T13:22:23;16.17;;;9.53;;
12681;SDS011;6405;59.208;18.216;2024-03-02T13:24:50;14.67;;;9.17;;
12681;SDS011;6405;59.208;18.216;2024-03-02T13:27:16;14.20;;;10.07;;
12681;SDS011;6405;59.208;18.216;2024-03-02T13:29:48;15.83;;;9.30;;
12681;SDS011;6405;59.208;18.216;2024-03-02T13:32:14;15.73;;;8.93;;
12681;SDS011;6405;59.208;18.216;2024-03-02T13:34:40;13.57;;;9.60;;
12681;SDS011;6405;59.208;18.216;2024-03-02T13:37:06;15.80;;;9.70;;
12681;SDS011;6405;59.208;18.216;2024-03-02T13:39:32;15.27;;;10.33;;
12681;SDS011;6405;59.208;18.216;2024-03-02T13:42:00;15.87;;;9.87;;
12681;SDS011;6405;59.208;18.216;2024-03-02T13:44:30;15.70;;;9.37;;
12681;SDS011;6405;59.208;18.216;2024-03-02T13:46:56;13.03;;;9.30;;
12681;SDS011;6405;59.208;18.216;2024-03-02T13:49:23;14.63;;;9.20;;
12681;SDS011;6405;59.208;18.216;2024-03-02T13:51:49;13.43;;;9.53;;
12681;SDS011;6405;59.208;18.216;2024-03-02T13:54:15;14.50;;;10.40;;
12681;SDS011;6405;59.208;18.216;2024-03-02T13:56:41;14.37;;;9.43;;
12681;SDS011;6405;59.208;18.216;2024-03-02T13:59:07;15.87;;;9.67;;
12681;SDS011;6405;59.208;18.216;2024-03-02T14:01:33;14.80;;;10.00;;
12681;SDS011;6405;59.208;18.216;2024-03-02T14:03:59;15.53;;;9.50;;
12681;SDS011;6405;59.208;18.216;2024-03-02T14:06:25;15.63;;;9.23;;
12681;SDS011;6405;59.208;18.216;2024-03-02T14:08:52;16.23;;;9.60;;
12681;SDS011;6405;59.208;18.216;2024-03-02T14:11:18;13.77;;;9.23;;
12681;SDS011;6405;59.208;18.216;2024-03-02T14:13:44;16.97;;;10.20;;
12681;SDS011;6405;59.208;18.216;2024-03-02T14:16:14;14.60;;;9.53;;
12681;SDS011;6405;59.208;18.216;2024-03-02T14:18:40;14.67;;;9.33;;
12681;SDS011;6405;59.208;18.216;2024-03-02T14:21:07;15.93;;;9.77;;